Currently 59°F in Moreno Valley, California, USA
59°F
60°F / 49°F
7 mph W
0.03"
Sunday, February 23, 2020 2:43 PM PST

Moreno Valley, California Weather Summary
Last 36 Hours

Temperature Winds Hourly Humidity Dewpoint
Time Report Norm Report Norm Max Gusts Precip. Rpt. Norm Rpt. Norm Pressure
1Sun 02:43 PM  59.4°F  64°F  7 mph W  5 mph  7 mph  0.00"  84%  46%  54°F  42°F  30.22"
Sun 02:00 PM  58.7°F  64°F  4 mph NW  5 mph  9 mph  0.00"  85%  46%  54°F  42°F  30.23"
Sun 01:00 PM  59.9°F  63°F  6 mph W  5 mph  8 mph  0.00"  85%  47%  55°F  42°F  30.25"
2Sun 12:37 PM  60.3°F  62°F  2 mph E  4 mph  6 mph  ----  86%  49%  56°F  42°F  30.26"
Sun 12:00 PM  56.9°F  61°F  5 mph SE  4 mph  8 mph  0.00"  92%  51%  54°F  43°F  30.28"
Sun 11:00 AM  54.5°F  59°F  calm  4 mph  6 mph  0.00"  98%  57%  54°F  43°F  30.29"
Sun 10:00 AM  52.7°F  57°F  5 mph W  3 mph  6 mph  0.00"  100%  63%  53°F  44°F  30.29"
Sun 09:00 AM  51.4°F  54°F  calm  3 mph  none  0.00"  100%  70%  51°F  44°F  30.27"
Sun 08:00 AM  49.8°F  51°F  calm  3 mph  none  0.00"  100%  75%  50°F  43°F  30.27"
Sun 07:00 AM  49.7°F  47°F  calm  2 mph  none  0.00"  100%  80%  50°F  41°F  30.23"
Sun 06:00 AM  49.4°F  46°F  calm  2 mph  none  0.01"  100%  81%  49°F  40°F  30.21"
Sun 05:00 AM  49.1°F  46°F  calm  2 mph  none  0.01"  100%  81%  49°F  40°F  30.18"
Sun 04:00 AM  49.1°F  47°F  calm  2 mph  none  0.01"  100%  80%  49°F  41°F  30.16"
Sun 03:00 AM  49.2°F  47°F  calm  2 mph  none  0.00"  100%  80%  49°F  41°F  30.14"
Sun 02:00 AM  49.1°F  47°F  calm  1 mph  none  0.00"  100%  80%  49°F  41°F  30.15"
3Sun 01:20 AM  48.7°F  48°F  calm  2 mph  none  ----  100%  80%  49°F  42°F  30.15"
Sun 01:00 AM  49.1°F  48°F  calm  2 mph  2 mph  0.00"  100%  80%  49°F  42°F  30.14"
Sun 12:00 AM  48.9°F  48°F  1 mph E  2 mph  3 mph  0.00"  100%  80%  49°F  42°F  30.14"
Sat 11:00 PM  48.6°F  49°F  calm  2 mph  4 mph  0.00"  100%  78%  49°F  42°F  30.13"
Sat 10:00 PM  48.4°F  50°F  calm  2 mph  5 mph  0.00"  100%  77%  48°F  43°F  30.12"
Sat 09:00 PM  47.9°F  51°F  calm  2 mph  9 mph  0.01"  100%  74%  48°F  43°F  30.11"
Sat 08:00 PM  47.7°F  53°F  4 mph SE  3 mph  8 mph  0.02"  100%  70%  48°F  43°F  30.09"
Sat 07:00 PM  47.5°F  54°F  5 mph SE  3 mph  11 mph  0.03"  100%  66%  47°F  43°F  30.08"
Sat 06:00 PM  47.6°F  56°F  3 mph E  3 mph  10 mph  0.03"  99%  61%  47°F  43°F  30.06"
Sat 05:00 PM  47.9°F  60°F  5 mph SE  4 mph  10 mph  0.03"  99%  54%  48°F  43°F  30.04"
Sat 04:00 PM  48.6°F  63°F  6 mph SE  5 mph  14 mph  0.08"  98%  48%  48°F  42°F  30.03"
Sat 03:00 PM  48.1°F  64°F  7 mph SE  5 mph  13 mph  0.19"  98%  46%  47°F  42°F  30.03"
Sat 02:00 PM  48.5°F  64°F  3 mph NE  5 mph  9 mph  0.37"  96%  45%  47°F  41°F  30.02"
Sat 01:00 PM  52.6°F  63°F  5 mph S  5 mph  10 mph  0.07"  90%  46%  50°F  42°F  30.02"
Sat 12:00 PM  58.4°F  62°F  4 mph W  4 mph  9 mph  0.00"  75%  50%  50°F  42°F  30.02"
Sat 11:00 AM  57.0°F  60°F  6 mph SW  4 mph  11 mph  0.00"  79%  56%  50°F  43°F  30.03"
Sat 10:00 AM  56.7°F  57°F  1 mph S  3 mph  12 mph  0.00"  80%  62%  50°F  44°F  30.03"
Sat 09:00 AM  55.3°F  54°F  9 mph SE  3 mph  14 mph  0.00"  87%  69%  51°F  44°F  30.03"
Sat 08:00 AM  52.4°F  51°F  5 mph SE  2 mph  10 mph  0.00"  93%  75%  50°F  43°F  30.03"
Sat 07:00 AM  51.9°F  46°F  4 mph SE  2 mph  7 mph  0.00"  93%  80%  50°F  40°F  30.02"
Sat 06:00 AM  52.3°F  46°F  3 mph SE  1 mph  8 mph  0.00"  92%  80%  50°F  40°F  30.01"
Sat 05:00 AM  52.2°F  46°F  3 mph SE  2 mph  8 mph  0.00"  92%  80%  50°F  40°F  30.01"
Sat 04:00 AM  52.8°F  47°F  4 mph SE  2 mph  8 mph  0.00"  92%  79%  50°F  40°F  30.00"
Sat 03:00 AM  52.9°F  47°F  3 mph S  2 mph  10 mph  0.00"  92%  79%  50°F  41°F  30.00"

  1. Current weather data. No green row appears if the current weather data is also the high or low for the current day.
  2. High temperature for the current day.
  3. Low temperature for the current day.

The Moreno Valley, California weather pages are a service of WeatherCurrents. Moreno Valley is located in Southern California's Inland Empire, east of Riverside and north of Perris, along the State Route 60 freeway.
Copyright ©2020  WeatherCurrents. All rights reserved. - Submit questions and comments - Privacy Policy

This page automatically refreshes every 10 minutes.